sensor_id;sensor_type;location;lat;lon;timestamp;P1;durP1;ratioP1;P2;durP2;ratioP2
70199;SDS011;57587;55.688;37.600;2023-03-16T00:00:00;27.48;;;15.00;;
70199;SDS011;57587;55.688;37.600;2023-03-16T00:02:29;26.92;;;15.35;;
70199;SDS011;57587;55.688;37.600;2023-03-16T00:04:56;25.03;;;15.40;;
70199;SDS011;57587;55.688;37.600;2023-03-16T00:07:24;28.52;;;15.38;;
70199;SDS011;57587;55.688;37.600;2023-03-16T00:09:51;23.42;;;15.18;;
70199;SDS011;57587;55.688;37.600;2023-03-16T00:12:20;27.17;;;14.93;;
70199;SDS011;57587;55.688;37.600;2023-03-16T00:14:48;26.80;;;14.70;;
70199;SDS011;57587;55.688;37.600;2023-03-16T00:17:17;23.70;;;15.17;;
70199;SDS011;57587;55.688;37.600;2023-03-16T00:19:53;26.77;;;15.27;;
70199;SDS011;57587;55.688;37.600;2023-03-16T00:22:26;27.23;;;15.93;;
70199;SDS011;57587;55.688;37.600;2023-03-16T00:24:55;25.83;;;15.65;;
70199;SDS011;57587;55.688;37.600;2023-03-16T00:27:24;28.88;;;14.98;;
70199;SDS011;57587;55.688;37.600;2023-03-16T00:29:52;25.20;;;16.03;;
70199;SDS011;57587;55.688;37.600;2023-03-16T00:32:24;26.77;;;16.08;;
70199;SDS011;57587;55.688;37.600;2023-03-16T00:34:53;30.80;;;17.35;;
70199;SDS011;57587;55.688;37.600;2023-03-16T00:37:21;24.77;;;16.23;;
70199;SDS011;57587;55.688;37.600;2023-03-16T00:39:49;28.90;;;15.75;;
70199;SDS011;57587;55.688;37.600;2023-03-16T00:42:18;32.23;;;16.03;;
70199;SDS011;57587;55.688;37.600;2023-03-16T00:44:46;27.60;;;16.10;;
70199;SDS011;57587;55.688;37.600;2023-03-16T00:47:13;28.85;;;16.67;;
70199;SDS011;57587;55.688;37.600;2023-03-16T00:49:41;28.67;;;16.17;;
70199;SDS011;57587;55.688;37.600;2023-03-16T00:52:10;24.73;;;15.40;;
70199;SDS011;57587;55.688;37.600;2023-03-16T00:54:41;27.27;;;17.17;;
70199;SDS011;57587;55.688;37.600;2023-03-16T00:57:11;27.88;;;17.13;;
70199;SDS011;57587;55.688;37.600;2023-03-16T00:59:45;27.00;;;17.10;;
70199;SDS011;57587;55.688;37.600;2023-03-16T01:02:12;28.25;;;17.00;;
70199;SDS011;57587;55.688;37.600;2023-03-16T01:04:41;28.08;;;16.30;;
70199;SDS011;57587;55.688;37.600;2023-03-16T01:07:11;27.13;;;16.40;;
70199;SDS011;57587;55.688;37.600;2023-03-16T01:09:39;26.08;;;15.27;;
70199;SDS011;57587;55.688;37.600;2023-03-16T01:12:10;30.98;;;15.70;;
70199;SDS011;57587;55.688;37.600;2023-03-16T01:14:39;27.00;;;15.93;;
70199;SDS011;57587;55.688;37.600;2023-03-16T01:17:07;27.15;;;15.77;;
70199;SDS011;57587;55.688;37.600;2023-03-16T01:19:35;26.40;;;15.77;;
70199;SDS011;57587;55.688;37.600;2023-03-16T01:22:04;25.75;;;15.00;;
70199;SDS011;57587;55.688;37.600;2023-03-16T01:24:32;25.38;;;15.48;;
70199;SDS011;57587;55.688;37.600;2023-03-16T01:27:04;28.60;;;15.75;;
70199;SDS011;57587;55.688;37.600;2023-03-16T01:29:33;25.17;;;14.57;;
70199;SDS011;57587;55.688;37.600;2023-03-16T01:32:01;25.73;;;14.93;;
70199;SDS011;57587;55.688;37.600;2023-03-16T01:34:30;23.85;;;14.05;;
70199;SDS011;57587;55.688;37.600;2023-03-16T01:36:58;24.42;;;14.77;;
70199;SDS011;57587;55.688;37.600;2023-03-16T01:39:35;21.15;;;12.55;;
70199;SDS011;57587;55.688;37.600;2023-03-16T01:42:04;22.25;;;14.30;;
70199;SDS011;57587;55.688;37.600;2023-03-16T01:44:48;25.23;;;14.17;;
70199;SDS011;57587;55.688;37.600;2023-03-16T01:47:23;23.35;;;14.35;;
70199;SDS011;57587;55.688;37.600;2023-03-16T01:49:51;27.10;;;15.05;;
70199;SDS011;57587;55.688;37.600;2023-03-16T01:52:26;22.42;;;13.23;;
70199;SDS011;57587;55.688;37.600;2023-03-16T01:54:59;21.20;;;13.80;;
70199;SDS011;57587;55.688;37.600;2023-03-16T01:57:32;25.40;;;14.07;;
70199;SDS011;57587;55.688;37.600;2023-03-16T02:00:10;25.52;;;13.95;;
70199;SDS011;57587;55.688;37.600;2023-03-16T02:03:09;25.92;;;14.48;;
70199;SDS011;57587;55.688;37.600;2023-03-16T02:08:52;23.17;;;12.45;;
70199;SDS011;57587;55.688;37.600;2023-03-16T02:11:22;22.43;;;13.90;;
70199;SDS011;57587;55.688;37.600;2023-03-16T02:14:02;22.17;;;13.25;;
70199;SDS011;57587;55.688;37.600;2023-03-16T02:16:33;25.10;;;13.93;;
70199;SDS011;57587;55.688;37.600;2023-03-16T02:19:01;21.70;;;13.57;;
70199;SDS011;57587;55.688;37.600;2023-03-16T02:24:21;24.27;;;11.83;;
70199;SDS011;57587;55.688;37.600;2023-03-16T02:26:53;22.75;;;12.32;;
70199;SDS011;57587;55.688;37.600;2023-03-16T02:31:56;19.95;;;12.10;;
70199;SDS011;57587;55.688;37.600;2023-03-16T02:34:24;21.45;;;12.15;;
70199;SDS011;57587;55.688;37.600;2023-03-16T02:36:53;20.30;;;11.77;;
70199;SDS011;57587;55.688;37.600;2023-03-16T02:39:24;23.83;;;12.25;;
70199;SDS011;57587;55.688;37.600;2023-03-16T02:41:51;22.50;;;12.50;;
70199;SDS011;57587;55.688;37.600;2023-03-16T02:44:19;21.55;;;12.05;;
70199;SDS011;57587;55.688;37.600;2023-03-16T02:46:54;19.15;;;11.68;;
70199;SDS011;57587;55.688;37.600;2023-03-16T02:52:04;22.85;;;12.35;;
70199;SDS011;57587;55.688;37.600;2023-03-16T02:54:32;25.00;;;12.93;;
70199;SDS011;57587;55.688;37.600;2023-03-16T02:57:00;20.40;;;12.57;;
70199;SDS011;57587;55.688;37.600;2023-03-16T02:59:28;20.83;;;12.40;;
70199;SDS011;57587;55.688;37.600;2023-03-16T03:01:56;21.00;;;13.23;;
70199;SDS011;57587;55.688;37.600;2023-03-16T03:04:23;21.27;;;12.15;;
70199;SDS011;57587;55.688;37.600;2023-03-16T03:06:50;24.67;;;13.38;;
70199;SDS011;57587;55.688;37.600;2023-03-16T03:09:18;19.42;;;11.95;;
70199;SDS011;57587;55.688;37.600;2023-03-16T03:11:49;20.98;;;13.68;;
70199;SDS011;57587;55.688;37.600;2023-03-16T03:14:16;21.60;;;13.17;;
70199;SDS011;57587;55.688;37.600;2023-03-16T03:16:46;25.55;;;12.48;;
70199;SDS011;57587;55.688;37.600;2023-03-16T03:19:14;26.20;;;13.13;;
70199;SDS011;57587;55.688;37.600;2023-03-16T03:21:41;21.77;;;12.30;;
70199;SDS011;57587;55.688;37.600;2023-03-16T03:24:08;22.50;;;11.88;;
70199;SDS011;57587;55.688;37.600;2023-03-16T03:26:36;21.50;;;12.83;;
70199;SDS011;57587;55.688;37.600;2023-03-16T03:29:07;23.52;;;13.10;;
70199;SDS011;57587;55.688;37.600;2023-03-16T03:31:35;19.92;;;12.27;;
70199;SDS011;57587;55.688;37.600;2023-03-16T03:34:02;25.52;;;12.80;;
70199;SDS011;57587;55.688;37.600;2023-03-16T03:36:34;28.65;;;13.10;;
70199;SDS011;57587;55.688;37.600;2023-03-16T03:39:02;26.50;;;11.93;;
70199;SDS011;57587;55.688;37.600;2023-03-16T03:41:32;21.10;;;12.15;;
70199;SDS011;57587;55.688;37.600;2023-03-16T03:44:02;24.30;;;12.65;;
70199;SDS011;57587;55.688;37.600;2023-03-16T03:46:30;23.23;;;13.40;;
70199;SDS011;57587;55.688;37.600;2023-03-16T03:48:57;22.35;;;11.82;;
70199;SDS011;57587;55.688;37.600;2023-03-16T03:51:31;21.53;;;12.50;;
70199;SDS011;57587;55.688;37.600;2023-03-16T03:54:07;22.67;;;12.23;;
70199;SDS011;57587;55.688;37.600;2023-03-16T03:56:45;22.55;;;11.82;;
70199;SDS011;57587;55.688;37.600;2023-03-16T03:59:14;22.63;;;12.80;;
70199;SDS011;57587;55.688;37.600;2023-03-16T04:02:00;20.92;;;11.55;;
70199;SDS011;57587;55.688;37.600;2023-03-16T04:04:37;20.77;;;11.23;;
70199;SDS011;57587;55.688;37.600;2023-03-16T04:07:07;22.65;;;11.70;;
70199;SDS011;57587;55.688;37.600;2023-03-16T04:09:34;23.98;;;11.38;;
70199;SDS011;57587;55.688;37.600;2023-03-16T04:12:03;24.40;;;12.00;;
70199;SDS011;57587;55.688;37.600;2023-03-16T04:14:32;21.15;;;11.70;;
70199;SDS011;57587;55.688;37.600;2023-03-16T04:17:04;21.10;;;12.70;;
70199;SDS011;57587;55.688;37.600;2023-03-16T04:19:34;22.95;;;12.40;;
70199;SDS011;57587;55.688;37.600;2023-03-16T04:22:03;24.52;;;12.18;;
70199;SDS011;57587;55.688;37.600;2023-03-16T04:24:30;23.83;;;11.38;;
70199;SDS011;57587;55.688;37.600;2023-03-16T04:27:00;28.98;;;12.07;;
70199;SDS011;57587;55.688;37.600;2023-03-16T04:29:28;23.00;;;11.63;;
70199;SDS011;57587;55.688;37.600;2023-03-16T04:31:56;21.10;;;11.70;;
70199;SDS011;57587;55.688;37.600;2023-03-16T04:34:26;27.67;;;12.63;;
70199;SDS011;57587;55.688;37.600;2023-03-16T04:36:57;32.63;;;12.77;;
70199;SDS011;57587;55.688;37.600;2023-03-16T04:39:24;29.42;;;12.32;;
70199;SDS011;57587;55.688;37.600;2023-03-16T04:41:53;27.13;;;13.30;;
70199;SDS011;57587;55.688;37.600;2023-03-16T04:44:23;21.83;;;12.60;;
70199;SDS011;57587;55.688;37.600;2023-03-16T04:46:52;23.25;;;13.32;;
70199;SDS011;57587;55.688;37.600;2023-03-16T04:49:20;18.85;;;11.35;;
70199;SDS011;57587;55.688;37.600;2023-03-16T04:51:48;26.48;;;11.35;;
70199;SDS011;57587;55.688;37.600;2023-03-16T04:54:17;19.70;;;11.93;;
70199;SDS011;57587;55.688;37.600;2023-03-16T04:56:44;21.48;;;12.05;;
70199;SDS011;57587;55.688;37.600;2023-03-16T04:59:36;23.38;;;11.55;;
70199;SDS011;57587;55.688;37.600;2023-03-16T05:02:13;25.70;;;12.60;;
70199;SDS011;57587;55.688;37.600;2023-03-16T05:04:40;23.52;;;11.95;;
70199;SDS011;57587;55.688;37.600;2023-03-16T05:07:10;24.13;;;11.73;;
70199;SDS011;57587;55.688;37.600;2023-03-16T05:09:40;22.58;;;11.77;;
70199;SDS011;57587;55.688;37.600;2023-03-16T05:12:07;20.00;;;11.95;;
70199;SDS011;57587;55.688;37.600;2023-03-16T05:14:36;21.08;;;12.43;;
70199;SDS011;57587;55.688;37.600;2023-03-16T05:17:29;22.20;;;12.90;;
70199;SDS011;57587;55.688;37.600;2023-03-16T05:19:56;25.10;;;12.80;;
70199;SDS011;57587;55.688;37.600;2023-03-16T05:22:24;21.35;;;12.18;;
70199;SDS011;57587;55.688;37.600;2023-03-16T05:25:07;21.50;;;12.77;;
70199;SDS011;57587;55.688;37.600;2023-03-16T05:27:34;23.90;;;12.32;;
70199;SDS011;57587;55.688;37.600;2023-03-16T05:30:04;22.70;;;12.35;;
70199;SDS011;57587;55.688;37.600;2023-03-16T05:32:33;29.10;;;12.23;;
70199;SDS011;57587;55.688;37.600;2023-03-16T05:35:00;23.98;;;12.10;;
70199;SDS011;57587;55.688;37.600;2023-03-16T05:37:30;22.30;;;12.38;;
70199;SDS011;57587;55.688;37.600;2023-03-16T05:39:57;20.38;;;11.55;;
70199;SDS011;57587;55.688;37.600;2023-03-16T05:42:24;21.73;;;12.40;;
70199;SDS011;57587;55.688;37.600;2023-03-16T05:44:58;18.63;;;11.83;;
70199;SDS011;57587;55.688;37.600;2023-03-16T05:47:43;19.42;;;11.30;;
70199;SDS011;57587;55.688;37.600;2023-03-16T05:50:12;21.38;;;12.68;;
70199;SDS011;57587;55.688;37.600;2023-03-16T05:52:43;17.58;;;10.95;;
70199;SDS011;57587;55.688;37.600;2023-03-16T05:55:17;19.42;;;12.13;;
70199;SDS011;57587;55.688;37.600;2023-03-16T05:57:50;19.30;;;11.40;;
70199;SDS011;57587;55.688;37.600;2023-03-16T06:00:18;20.02;;;10.93;;
70199;SDS011;57587;55.688;37.600;2023-03-16T06:02:54;16.95;;;10.55;;
70199;SDS011;57587;55.688;37.600;2023-03-16T06:05:26;23.58;;;12.00;;
70199;SDS011;57587;55.688;37.600;2023-03-16T06:07:54;18.60;;;11.02;;
70199;SDS011;57587;55.688;37.600;2023-03-16T06:10:25;18.43;;;10.97;;
70199;SDS011;57587;55.688;37.600;2023-03-16T06:12:52;19.15;;;12.27;;
70199;SDS011;57587;55.688;37.600;2023-03-16T06:15:20;23.55;;;10.68;;
70199;SDS011;57587;55.688;37.600;2023-03-16T06:17:51;22.63;;;10.88;;
70199;SDS011;57587;55.688;37.600;2023-03-16T06:20:18;19.17;;;10.98;;
70199;SDS011;57587;55.688;37.600;2023-03-16T06:22:45;19.50;;;11.97;;
70199;SDS011;57587;55.688;37.600;2023-03-16T06:25:13;19.85;;;10.57;;
70199;SDS011;57587;55.688;37.600;2023-03-16T06:27:43;21.40;;;12.00;;
70199;SDS011;57587;55.688;37.600;2023-03-16T06:30:15;70.18;;;37.72;;
70199;SDS011;57587;55.688;37.600;2023-03-16T06:32:43;22.13;;;12.80;;
70199;SDS011;57587;55.688;37.600;2023-03-16T06:35:12;21.30;;;11.83;;
70199;SDS011;57587;55.688;37.600;2023-03-16T06:37:46;18.83;;;11.20;;
70199;SDS011;57587;55.688;37.600;2023-03-16T06:40:32;19.88;;;11.45;;
70199;SDS011;57587;55.688;37.600;2023-03-16T06:42:59;18.67;;;12.07;;
70199;SDS011;57587;55.688;37.600;2023-03-16T06:45:28;20.88;;;10.77;;
70199;SDS011;57587;55.688;37.600;2023-03-16T06:47:55;16.93;;;10.73;;
70199;SDS011;57587;55.688;37.600;2023-03-16T06:50:23;18.45;;;10.32;;
70199;SDS011;57587;55.688;37.600;2023-03-16T06:52:50;18.05;;;10.45;;
70199;SDS011;57587;55.688;37.600;2023-03-16T06:55:17;19.83;;;11.00;;
70199;SDS011;57587;55.688;37.600;2023-03-16T06:57:46;16.10;;;10.63;;
70199;SDS011;57587;55.688;37.600;2023-03-16T07:00:14;20.47;;;10.90;;
70199;SDS011;57587;55.688;37.600;2023-03-16T07:02:41;20.02;;;11.80;;
70199;SDS011;57587;55.688;37.600;2023-03-16T07:05:11;18.58;;;11.80;;
70199;SDS011;57587;55.688;37.600;2023-03-16T07:07:40;19.60;;;11.45;;
70199;SDS011;57587;55.688;37.600;2023-03-16T07:10:12;18.05;;;10.68;;
70199;SDS011;57587;55.688;37.600;2023-03-16T07:12:40;17.43;;;10.80;;
70199;SDS011;57587;55.688;37.600;2023-03-16T07:15:08;18.65;;;10.40;;
70199;SDS011;57587;55.688;37.600;2023-03-16T07:17:38;19.35;;;11.55;;
70199;SDS011;57587;55.688;37.600;2023-03-16T07:20:06;22.77;;;11.00;;
70199;SDS011;57587;55.688;37.600;2023-03-16T07:22:37;17.48;;;10.98;;
70199;SDS011;57587;55.688;37.600;2023-03-16T07:25:07;17.37;;;11.57;;
70199;SDS011;57587;55.688;37.600;2023-03-16T07:27:41;18.98;;;11.00;;
70199;SDS011;57587;55.688;37.600;2023-03-16T07:30:11;17.60;;;11.98;;
70199;SDS011;57587;55.688;37.600;2023-03-16T07:32:42;20.30;;;12.68;;
70199;SDS011;57587;55.688;37.600;2023-03-16T07:35:10;18.98;;;12.68;;
70199;SDS011;57587;55.688;37.600;2023-03-16T07:37:38;19.30;;;10.93;;
70199;SDS011;57587;55.688;37.600;2023-03-16T07:40:07;20.48;;;11.82;;
70199;SDS011;57587;55.688;37.600;2023-03-16T07:42:35;19.33;;;12.20;;
70199;SDS011;57587;55.688;37.600;2023-03-16T07:45:07;18.98;;;12.45;;
70199;SDS011;57587;55.688;37.600;2023-03-16T07:47:36;17.35;;;11.40;;
70199;SDS011;57587;55.688;37.600;2023-03-16T07:50:13;21.53;;;11.77;;
70199;SDS011;57587;55.688;37.600;2023-03-16T07:52:44;20.88;;;12.73;;
70199;SDS011;57587;55.688;37.600;2023-03-16T07:55:12;18.52;;;11.75;;
70199;SDS011;57587;55.688;37.600;2023-03-16T07:57:41;18.63;;;11.57;;
70199;SDS011;57587;55.688;37.600;2023-03-16T08:00:09;18.65;;;11.95;;
70199;SDS011;57587;55.688;37.600;2023-03-16T08:02:41;18.97;;;11.57;;
70199;SDS011;57587;55.688;37.600;2023-03-16T08:05:11;20.02;;;11.60;;
70199;SDS011;57587;55.688;37.600;2023-03-16T08:07:42;17.70;;;11.63;;
70199;SDS011;57587;55.688;37.600;2023-03-16T08:10:14;21.90;;;11.93;;
70199;SDS011;57587;55.688;37.600;2023-03-16T08:13:04;19.05;;;12.32;;
70199;SDS011;57587;55.688;37.600;2023-03-16T08:15:33;19.87;;;11.63;;
70199;SDS011;57587;55.688;37.600;2023-03-16T08:18:08;20.95;;;11.88;;
70199;SDS011;57587;55.688;37.600;2023-03-16T08:20:35;20.15;;;12.40;;
70199;SDS011;57587;55.688;37.600;2023-03-16T08:23:02;20.83;;;12.75;;
70199;SDS011;57587;55.688;37.600;2023-03-16T08:25:36;19.63;;;12.73;;
70199;SDS011;57587;55.688;37.600;2023-03-16T08:28:08;24.50;;;13.50;;
70199;SDS011;57587;55.688;37.600;2023-03-16T08:30:42;20.42;;;13.35;;
70199;SDS011;57587;55.688;37.600;2023-03-16T08:33:20;22.95;;;13.85;;
70199;SDS011;57587;55.688;37.600;2023-03-16T08:35:50;21.58;;;14.25;;
70199;SDS011;57587;55.688;37.600;2023-03-16T08:38:17;23.33;;;13.43;;
70199;SDS011;57587;55.688;37.600;2023-03-16T08:40:49;20.70;;;12.10;;
70199;SDS011;57587;55.688;37.600;2023-03-16T08:43:19;23.05;;;12.57;;
70199;SDS011;57587;55.688;37.600;2023-03-16T08:45:47;22.85;;;12.90;;
70199;SDS011;57587;55.688;37.600;2023-03-16T08:48:16;17.98;;;12.15;;
70199;SDS011;57587;55.688;37.600;2023-03-16T08:50:47;22.02;;;12.73;;
70199;SDS011;57587;55.688;37.600;2023-03-16T08:53:14;18.63;;;11.90;;
70199;SDS011;57587;55.688;37.600;2023-03-16T08:55:41;18.13;;;11.75;;
70199;SDS011;57587;55.688;37.600;2023-03-16T08:58:09;22.00;;;13.05;;
70199;SDS011;57587;55.688;37.600;2023-03-16T09:00:37;20.60;;;12.20;;
70199;SDS011;57587;55.688;37.600;2023-03-16T09:03:05;20.98;;;12.05;;
70199;SDS011;57587;55.688;37.600;2023-03-16T09:05:33;25.23;;;13.40;;
70199;SDS011;57587;55.688;37.600;2023-03-16T09:08:00;20.17;;;13.00;;
70199;SDS011;57587;55.688;37.600;2023-03-16T09:10:29;25.25;;;13.82;;
70199;SDS011;57587;55.688;37.600;2023-03-16T09:12:58;22.08;;;12.65;;
70199;SDS011;57587;55.688;37.600;2023-03-16T09:15:25;25.23;;;13.65;;
70199;SDS011;57587;55.688;37.600;2023-03-16T09:17:52;28.20;;;14.33;;
70199;SDS011;57587;55.688;37.600;2023-03-16T09:20:20;22.80;;;13.30;;
70199;SDS011;57587;55.688;37.600;2023-03-16T09:22:53;24.48;;;13.73;;
70199;SDS011;57587;55.688;37.600;2023-03-16T09:25:21;23.05;;;13.43;;
70199;SDS011;57587;55.688;37.600;2023-03-16T09:27:51;24.52;;;13.50;;
70199;SDS011;57587;55.688;37.600;2023-03-16T09:30:19;25.90;;;12.97;;
70199;SDS011;57587;55.688;37.600;2023-03-16T09:32:46;21.90;;;13.85;;
70199;SDS011;57587;55.688;37.600;2023-03-16T09:35:14;24.65;;;13.25;;
70199;SDS011;57587;55.688;37.600;2023-03-16T09:37:42;21.45;;;12.93;;
70199;SDS011;57587;55.688;37.600;2023-03-16T09:40:29;21.25;;;13.88;;
70199;SDS011;57587;55.688;37.600;2023-03-16T09:48:27;22.10;;;13.90;;
70199;SDS011;57587;55.688;37.600;2023-03-16T09:50:59;21.48;;;13.43;;
70199;SDS011;57587;55.688;37.600;2023-03-16T09:53:28;23.13;;;13.88;;
70199;SDS011;57587;55.688;37.600;2023-03-16T09:55:59;22.57;;;13.40;;
70199;SDS011;57587;55.688;37.600;2023-03-16T09:58:32;26.92;;;15.07;;
70199;SDS011;57587;55.688;37.600;2023-03-16T10:01:02;23.40;;;14.75;;
70199;SDS011;57587;55.688;37.600;2023-03-16T10:06:28;30.50;;;16.90;;
70199;SDS011;57587;55.688;37.600;2023-03-16T10:11:48;26.35;;;14.80;;
70199;SDS011;57587;55.688;37.600;2023-03-16T10:17:12;27.25;;;14.45;;
70199;SDS011;57587;55.688;37.600;2023-03-16T10:22:21;25.67;;;14.57;;
70199;SDS011;57587;55.688;37.600;2023-03-16T10:25:00;22.15;;;14.23;;
70199;SDS011;57587;55.688;37.600;2023-03-16T10:27:47;24.50;;;14.60;;
70199;SDS011;57587;55.688;37.600;2023-03-16T10:33:03;26.40;;;15.30;;
70199;SDS011;57587;55.688;37.600;2023-03-16T10:43:46;25.13;;;15.45;;
70199;SDS011;57587;55.688;37.600;2023-03-16T10:46:17;23.42;;;14.50;;
70199;SDS011;57587;55.688;37.600;2023-03-16T10:51:47;23.67;;;13.82;;
70199;SDS011;57587;55.688;37.600;2023-03-16T10:54:15;25.23;;;14.63;;
70199;SDS011;57587;55.688;37.600;2023-03-16T10:56:53;23.80;;;13.68;;
70199;SDS011;57587;55.688;37.600;2023-03-16T10:59:32;22.83;;;14.10;;
70199;SDS011;57587;55.688;37.600;2023-03-16T11:02:01;27.43;;;15.10;;
70199;SDS011;57587;55.688;37.600;2023-03-16T11:04:41;24.52;;;15.65;;
70199;SDS011;57587;55.688;37.600;2023-03-16T11:07:14;33.20;;;16.08;;
70199;SDS011;57587;55.688;37.600;2023-03-16T11:09:45;29.40;;;14.98;;
70199;SDS011;57587;55.688;37.600;2023-03-16T11:12:18;29.05;;;16.00;;
70199;SDS011;57587;55.688;37.600;2023-03-16T11:14:50;31.13;;;16.53;;
70199;SDS011;57587;55.688;37.600;2023-03-16T11:17:27;24.23;;;15.55;;
70199;SDS011;57587;55.688;37.600;2023-03-16T11:20:04;28.38;;;16.20;;
70199;SDS011;57587;55.688;37.600;2023-03-16T11:22:38;25.58;;;14.90;;
70199;SDS011;57587;55.688;37.600;2023-03-16T11:32:55;26.55;;;15.75;;
70199;SDS011;57587;55.688;37.600;2023-03-16T11:35:27;28.42;;;14.93;;
70199;SDS011;57587;55.688;37.600;2023-03-16T11:41:11;27.30;;;15.93;;
70199;SDS011;57587;55.688;37.600;2023-03-16T11:43:53;28.27;;;16.45;;
70199;SDS011;57587;55.688;37.600;2023-03-16T11:48:54;31.40;;;17.60;;
70199;SDS011;57587;55.688;37.600;2023-03-16T11:59:44;30.08;;;16.65;;
70199;SDS011;57587;55.688;37.600;2023-03-16T12:02:35;27.70;;;17.10;;
70199;SDS011;57587;55.688;37.600;2023-03-16T12:08:21;29.10;;;16.97;;
70199;SDS011;57587;55.688;37.600;2023-03-16T12:11:04;31.73;;;18.05;;
70199;SDS011;57587;55.688;37.600;2023-03-16T12:16:25;40.15;;;21.10;;
70199;SDS011;57587;55.688;37.600;2023-03-16T12:19:43;41.78;;;22.05;;
70199;SDS011;57587;55.688;37.600;2023-03-16T12:22:17;40.17;;;21.17;;
70199;SDS011;57587;55.688;37.600;2023-03-16T12:24:48;47.30;;;23.02;;
70199;SDS011;57587;55.688;37.600;2023-03-16T12:27:18;42.50;;;22.35;;
70199;SDS011;57587;55.688;37.600;2023-03-16T12:35:15;42.43;;;22.70;;
70199;SDS011;57587;55.688;37.600;2023-03-16T12:37:52;42.13;;;22.10;;
70199;SDS011;57587;55.688;37.600;2023-03-16T12:48:50;45.07;;;21.70;;
70199;SDS011;57587;55.688;37.600;2023-03-16T12:51:31;42.10;;;20.17;;
70199;SDS011;57587;55.688;37.600;2023-03-16T12:54:02;41.03;;;20.73;;
70199;SDS011;57587;55.688;37.600;2023-03-16T12:56:32;41.38;;;21.83;;
70199;SDS011;57587;55.688;37.600;2023-03-16T12:59:02;39.88;;;21.45;;
70199;SDS011;57587;55.688;37.600;2023-03-16T13:01:40;39.33;;;21.27;;
70199;SDS011;57587;55.688;37.600;2023-03-16T13:04:19;41.13;;;19.75;;
70199;SDS011;57587;55.688;37.600;2023-03-16T13:06:49;46.50;;;22.92;;
70199;SDS011;57587;55.688;37.600;2023-03-16T13:09:27;43.55;;;21.60;;
70199;SDS011;57587;55.688;37.600;2023-03-16T13:11:57;42.05;;;21.17;;
70199;SDS011;57587;55.688;37.600;2023-03-16T13:17:40;42.78;;;21.15;;
70199;SDS011;57587;55.688;37.600;2023-03-16T13:22:50;43.40;;;22.63;;
70199;SDS011;57587;55.688;37.600;2023-03-16T13:25:39;40.72;;;22.50;;
70199;SDS011;57587;55.688;37.600;2023-03-16T13:28:12;43.47;;;19.90;;
70199;SDS011;57587;55.688;37.600;2023-03-16T13:30:45;47.05;;;24.15;;
70199;SDS011;57587;55.688;37.600;2023-03-16T13:33:19;45.08;;;23.55;;
70199;SDS011;57587;55.688;37.600;2023-03-16T13:35:49;47.67;;;21.95;;
70199;SDS011;57587;55.688;37.600;2023-03-16T13:38:20;49.25;;;22.58;;
70199;SDS011;57587;55.688;37.600;2023-03-16T13:40:49;53.13;;;22.67;;
70199;SDS011;57587;55.688;37.600;2023-03-16T13:43:21;44.67;;;22.88;;
70199;SDS011;57587;55.688;37.600;2023-03-16T13:45:50;50.83;;;26.67;;
70199;SDS011;57587;55.688;37.600;2023-03-16T13:48:17;54.55;;;27.35;;
70199;SDS011;57587;55.688;37.600;2023-03-16T13:50:49;51.25;;;27.90;;
70199;SDS011;57587;55.688;37.600;2023-03-16T13:53:25;52.20;;;26.43;;
70199;SDS011;57587;55.688;37.600;2023-03-16T13:55:54;51.25;;;25.27;;
70199;SDS011;57587;55.688;37.600;2023-03-16T13:58:27;50.55;;;25.63;;
70199;SDS011;57587;55.688;37.600;2023-03-16T14:01:01;51.70;;;26.85;;
70199;SDS011;57587;55.688;37.600;2023-03-16T14:03:38;55.13;;;26.55;;
70199;SDS011;57587;55.688;37.600;2023-03-16T14:06:17;53.27;;;25.23;;
70199;SDS011;57587;55.688;37.600;2023-03-16T14:08:49;49.17;;;24.23;;
70199;SDS011;57587;55.688;37.600;2023-03-16T14:11:19;48.55;;;23.90;;
70199;SDS011;57587;55.688;37.600;2023-03-16T14:13:50;49.70;;;25.08;;
70199;SDS011;57587;55.688;37.600;2023-03-16T14:16:22;50.72;;;24.38;;
70199;SDS011;57587;55.688;37.600;2023-03-16T14:18:53;50.23;;;24.70;;
70199;SDS011;57587;55.688;37.600;2023-03-16T14:21:27;54.80;;;26.42;;
70199;SDS011;57587;55.688;37.600;2023-03-16T14:23:58;55.63;;;27.20;;
70199;SDS011;57587;55.688;37.600;2023-03-16T14:26:37;53.30;;;25.77;;
70199;SDS011;57587;55.688;37.600;2023-03-16T14:29:17;55.38;;;25.35;;
70199;SDS011;57587;55.688;37.600;2023-03-16T14:31:50;55.70;;;25.33;;
70199;SDS011;57587;55.688;37.600;2023-03-16T14:34:30;52.38;;;25.20;;
70199;SDS011;57587;55.688;37.600;2023-03-16T14:37:09;55.15;;;25.83;;
70199;SDS011;57587;55.688;37.600;2023-03-16T14:39:38;54.97;;;27.05;;
70199;SDS011;57587;55.688;37.600;2023-03-16T14:42:18;60.25;;;28.17;;
70199;SDS011;57587;55.688;37.600;2023-03-16T14:44:53;51.93;;;25.87;;
70199;SDS011;57587;55.688;37.600;2023-03-16T14:47:26;51.60;;;24.83;;
70199;SDS011;57587;55.688;37.600;2023-03-16T14:50:05;60.00;;;26.95;;
70199;SDS011;57587;55.688;37.600;2023-03-16T14:52:52;50.10;;;24.15;;
70199;SDS011;57587;55.688;37.600;2023-03-16T14:55:20;51.15;;;25.85;;
70199;SDS011;57587;55.688;37.600;2023-03-16T14:57:49;54.80;;;26.73;;
70199;SDS011;57587;55.688;37.600;2023-03-16T15:00:20;49.28;;;24.63;;
70199;SDS011;57587;55.688;37.600;2023-03-16T15:02:53;53.13;;;25.05;;
70199;SDS011;57587;55.688;37.600;2023-03-16T15:05:32;52.97;;;25.48;;
70199;SDS011;57587;55.688;37.600;2023-03-16T15:08:02;54.40;;;24.77;;
70199;SDS011;57587;55.688;37.600;2023-03-16T15:10:32;52.37;;;24.37;;
70199;SDS011;57587;55.688;37.600;2023-03-16T15:13:01;48.53;;;23.67;;
70199;SDS011;57587;55.688;37.600;2023-03-16T15:15:39;51.13;;;24.55;;
70199;SDS011;57587;55.688;37.600;2023-03-16T15:18:08;54.13;;;24.65;;
70199;SDS011;57587;55.688;37.600;2023-03-16T15:20:39;54.60;;;25.25;;
70199;SDS011;57587;55.688;37.600;2023-03-16T15:23:09;45.20;;;22.90;;
70199;SDS011;57587;55.688;37.600;2023-03-16T15:25:41;38.30;;;19.67;;
70199;SDS011;57587;55.688;37.600;2023-03-16T15:28:17;39.35;;;18.95;;
70199;SDS011;57587;55.688;37.600;2023-03-16T15:30:47;29.42;;;13.80;;
70199;SDS011;57587;55.688;37.600;2023-03-16T15:33:16;19.35;;;11.23;;
70199;SDS011;57587;55.688;37.600;2023-03-16T15:35:44;20.97;;;12.73;;
70199;SDS011;57587;55.688;37.600;2023-03-16T15:38:34;20.50;;;11.07;;
70199;SDS011;57587;55.688;37.600;2023-03-16T15:41:02;17.98;;;11.20;;
70199;SDS011;57587;55.688;37.600;2023-03-16T15:43:29;19.27;;;10.40;;
70199;SDS011;57587;55.688;37.600;2023-03-16T15:45:57;20.27;;;10.55;;
70199;SDS011;57587;55.688;37.600;2023-03-16T15:48:29;20.93;;;11.17;;
70199;SDS011;57587;55.688;37.600;2023-03-16T15:50:58;23.52;;;13.15;;
70199;SDS011;57587;55.688;37.600;2023-03-16T15:53:46;38.58;;;20.98;;
70199;SDS011;57587;55.688;37.600;2023-03-16T15:56:21;26.60;;;13.63;;
70199;SDS011;57587;55.688;37.600;2023-03-16T15:58:55;20.63;;;11.13;;
70199;SDS011;57587;55.688;37.600;2023-03-16T16:01:40;24.37;;;12.13;;